sensor_id;sensor_type;location;lat;lon;timestamp;temperature;humidity
2611;DHT22;5612;51.134;17.058;2023-05-29T00:00:56;12.80;99.90
2611;DHT22;5612;51.134;17.058;2023-05-29T00:03:27;12.80;99.90
2611;DHT22;5612;51.134;17.058;2023-05-29T00:06:02;12.80;99.90
2611;DHT22;5612;51.134;17.058;2023-05-29T00:08:31;12.80;99.90
2611;DHT22;5612;51.134;17.058;2023-05-29T00:11:00;12.80;99.90
2611;DHT22;5612;51.134;17.058;2023-05-29T00:13:31;12.70;99.90
2611;DHT22;5612;51.134;17.058;2023-05-29T00:16:01;12.70;99.90
2611;DHT22;5612;51.134;17.058;2023-05-29T00:18:33;12.70;99.90
2611;DHT22;5612;51.134;17.058;2023-05-29T00:21:15;12.60;99.90
2611;DHT22;5612;51.134;17.058;2023-05-29T00:23:44;12.60;99.90
2611;DHT22;5612;51.134;17.058;2023-05-29T00:26:13;12.50;99.90
2611;DHT22;5612;51.134;17.058;2023-05-29T00:28:45;12.50;99.90
2611;DHT22;5612;51.134;17.058;2023-05-29T00:31:14;12.40;99.90
2611;DHT22;5612;51.134;17.058;2023-05-29T00:33:43;12.40;99.90
2611;DHT22;5612;51.134;17.058;2023-05-29T00:36:12;12.30;99.90
2611;DHT22;5612;51.134;17.058;2023-05-29T00:38:41;12.30;99.90
2611;DHT22;5612;51.134;17.058;2023-05-29T00:41:13;12.30;99.90
2611;DHT22;5612;51.134;17.058;2023-05-29T00:43:44;12.20;99.90
2611;DHT22;5612;51.134;17.058;2023-05-29T00:46:14;12.20;99.90
2611;DHT22;5612;51.134;17.058;2023-05-29T00:48:44;12.10;99.90
2611;DHT22;5612;51.134;17.058;2023-05-29T00:51:14;12.10;99.90
2611;DHT22;5612;51.134;17.058;2023-05-29T00:53:44;12.10;99.90
2611;DHT22;5612;51.134;17.058;2023-05-29T00:56:13;12.10;99.90
2611;DHT22;5612;51.134;17.058;2023-05-29T00:58:45;12.00;99.90
2611;DHT22;5612;51.134;17.058;2023-05-29T01:01:14;12.00;99.90
2611;DHT22;5612;51.134;17.058;2023-05-29T01:03:44;12.00;99.90
2611;DHT22;5612;51.134;17.058;2023-05-29T01:06:16;11.90;1.00
2611;DHT22;5612;51.134;17.058;2023-05-29T01:08:45;11.90;1.00
2611;DHT22;5612;51.134;17.058;2023-05-29T01:11:21;11.90;99.90
2611;DHT22;5612;51.134;17.058;2023-05-29T01:13:57;11.90;99.90
2611;DHT22;5612;51.134;17.058;2023-05-29T01:16:36;11.80;1.00
2611;DHT22;5612;51.134;17.058;2023-05-29T01:19:15;11.80;1.00
2611;DHT22;5612;51.134;17.058;2023-05-29T01:21:57;11.80;1.00
2611;DHT22;5612;51.134;17.058;2023-05-29T01:24:36;11.70;1.00
2611;DHT22;5612;51.134;17.058;2023-05-29T01:27:09;11.60;1.00
2611;DHT22;5612;51.134;17.058;2023-05-29T01:29:39;11.60;1.00
2611;DHT22;5612;51.134;17.058;2023-05-29T01:32:11;11.50;1.00
2611;DHT22;5612;51.134;17.058;2023-05-29T01:34:42;11.60;1.00
2611;DHT22;5612;51.134;17.058;2023-05-29T01:37:11;11.50;1.00
2611;DHT22;5612;51.134;17.058;2023-05-29T01:39:40;11.50;1.00
2611;DHT22;5612;51.134;17.058;2023-05-29T01:42:11;11.50;1.00
2611;DHT22;5612;51.134;17.058;2023-05-29T01:44:40;11.40;1.00
2611;DHT22;5612;51.134;17.058;2023-05-29T01:47:10;11.40;1.00
2611;DHT22;5612;51.134;17.058;2023-05-29T01:49:39;11.40;1.00
2611;DHT22;5612;51.134;17.058;2023-05-29T01:52:10;11.40;1.00
2611;DHT22;5612;51.134;17.058;2023-05-29T01:54:39;11.40;1.00
2611;DHT22;5612;51.134;17.058;2023-05-29T01:57:08;11.40;1.00
2611;DHT22;5612;51.134;17.058;2023-05-29T01:59:38;11.30;1.00
2611;DHT22;5612;51.134;17.058;2023-05-29T02:02:08;11.30;1.00
2611;DHT22;5612;51.134;17.058;2023-05-29T02:04:37;11.20;1.00
2611;DHT22;5612;51.134;17.058;2023-05-29T02:07:06;11.20;1.00
2611;DHT22;5612;51.134;17.058;2023-05-29T02:09:35;11.20;1.00
2611;DHT22;5612;51.134;17.058;2023-05-29T02:12:05;11.20;41.30
2611;DHT22;5612;51.134;17.058;2023-05-29T02:14:34;11.10;57.80
2611;DHT22;5612;51.134;17.058;2023-05-29T02:17:05;11.10;99.90
2611;DHT22;5612;51.134;17.058;2023-05-29T02:19:34;11.10;99.90
2611;DHT22;5612;51.134;17.058;2023-05-29T02:22:04;11.00;79.40
2611;DHT22;5612;51.134;17.058;2023-05-29T02:24:33;11.00;99.90
2611;DHT22;5612;51.134;17.058;2023-05-29T02:27:02;11.00;99.90
2611;DHT22;5612;51.134;17.058;2023-05-29T02:29:31;10.90;99.90
2611;DHT22;5612;51.134;17.058;2023-05-29T02:31:59;10.90;99.90
2611;DHT22;5612;51.134;17.058;2023-05-29T02:34:30;10.90;99.90
2611;DHT22;5612;51.134;17.058;2023-05-29T02:36:59;10.90;99.90
2611;DHT22;5612;51.134;17.058;2023-05-29T02:39:28;10.80;99.90
2611;DHT22;5612;51.134;17.058;2023-05-29T02:41:57;10.70;1.00
2611;DHT22;5612;51.134;17.058;2023-05-29T02:44:26;10.80;1.00
2611;DHT22;5612;51.134;17.058;2023-05-29T02:46:54;10.80;99.90
2611;DHT22;5612;51.134;17.058;2023-05-29T02:49:23;10.80;99.90
2611;DHT22;5612;51.134;17.058;2023-05-29T02:51:54;10.80;99.90
2611;DHT22;5612;51.134;17.058;2023-05-29T02:54:24;10.80;99.90
2611;DHT22;5612;51.134;17.058;2023-05-29T02:56:53;10.70;99.90
2611;DHT22;5612;51.134;17.058;2023-05-29T02:59:23;10.70;99.90
2611;DHT22;5612;51.134;17.058;2023-05-29T03:01:52;10.70;99.90
2611;DHT22;5612;51.134;17.058;2023-05-29T03:04:22;10.70;99.90
2611;DHT22;5612;51.134;17.058;2023-05-29T03:06:51;10.70;99.90
2611;DHT22;5612;51.134;17.058;2023-05-29T03:09:21;10.70;1.00
2611;DHT22;5612;51.134;17.058;2023-05-29T03:11:50;10.70;1.00
2611;DHT22;5612;51.134;17.058;2023-05-29T03:14:19;10.70;1.00
2611;DHT22;5612;51.134;17.058;2023-05-29T03:16:48;10.60;1.00
2611;DHT22;5612;51.134;17.058;2023-05-29T03:19:17;10.60;1.00
2611;DHT22;5612;51.134;17.058;2023-05-29T03:21:46;10.70;3.30
2611;DHT22;5612;51.134;17.058;2023-05-29T03:24:15;10.70;1.00
2611;DHT22;5612;51.134;17.058;2023-05-29T03:26:46;10.70;1.00
2611;DHT22;5612;51.134;17.058;2023-05-29T03:29:15;10.70;1.00
2611;DHT22;5612;51.134;17.058;2023-05-29T03:31:45;10.80;1.00
2611;DHT22;5612;51.134;17.058;2023-05-29T03:34:14;10.80;1.00
2611;DHT22;5612;51.134;17.058;2023-05-29T03:36:43;10.80;1.00
2611;DHT22;5612;51.134;17.058;2023-05-29T03:39:13;10.80;1.00
2611;DHT22;5612;51.134;17.058;2023-05-29T03:41:42;10.80;1.00
2611;DHT22;5612;51.134;17.058;2023-05-29T03:44:13;10.80;1.00
2611;DHT22;5612;51.134;17.058;2023-05-29T03:46:42;10.90;99.90
2611;DHT22;5612;51.134;17.058;2023-05-29T03:49:10;10.90;99.90
2611;DHT22;5612;51.134;17.058;2023-05-29T03:51:39;10.90;99.90
2611;DHT22;5612;51.134;17.058;2023-05-29T03:54:08;10.90;99.90
2611;DHT22;5612;51.134;17.058;2023-05-29T03:56:37;11.00;99.90
2611;DHT22;5612;51.134;17.058;2023-05-29T03:59:06;11.00;99.90
2611;DHT22;5612;51.134;17.058;2023-05-29T04:01:37;11.10;99.90
2611;DHT22;5612;51.134;17.058;2023-05-29T04:04:06;11.10;99.90
2611;DHT22;5612;51.134;17.058;2023-05-29T04:06:35;11.20;99.90
2611;DHT22;5612;51.134;17.058;2023-05-29T04:09:06;11.30;99.90
2611;DHT22;5612;51.134;17.058;2023-05-29T04:11:36;11.30;99.90
2611;DHT22;5612;51.134;17.058;2023-05-29T04:14:06;11.40;99.90
2611;DHT22;5612;51.134;17.058;2023-05-29T04:16:36;11.50;99.90
2611;DHT22;5612;51.134;17.058;2023-05-29T04:19:05;11.50;42.90
2611;DHT22;5612;51.134;17.058;2023-05-29T04:21:34;11.50;12.70
2611;DHT22;5612;51.134;17.058;2023-05-29T04:24:04;11.60;1.00
2611;DHT22;5612;51.134;17.058;2023-05-29T04:26:33;11.60;1.00
2611;DHT22;5612;51.134;17.058;2023-05-29T04:29:02;11.60;41.60
2611;DHT22;5612;51.134;17.058;2023-05-29T04:31:31;11.80;1.00
2611;DHT22;5612;51.134;17.058;2023-05-29T04:34:02;11.70;1.00
2611;DHT22;5612;51.134;17.058;2023-05-29T04:36:32;11.80;1.00
2611;DHT22;5612;51.134;17.058;2023-05-29T04:39:01;11.90;1.00
2611;DHT22;5612;51.134;17.058;2023-05-29T04:41:30;12.00;1.00
2611;DHT22;5612;51.134;17.058;2023-05-29T04:43:59;12.10;1.00
2611;DHT22;5612;51.134;17.058;2023-05-29T04:46:27;12.20;1.00
2611;DHT22;5612;51.134;17.058;2023-05-29T04:48:57;12.20;99.90
2611;DHT22;5612;51.134;17.058;2023-05-29T04:51:27;12.30;1.00
2611;DHT22;5612;51.134;17.058;2023-05-29T04:53:57;12.40;99.90
2611;DHT22;5612;51.134;17.058;2023-05-29T04:56:26;12.60;99.90
2611;DHT22;5612;51.134;17.058;2023-05-29T04:58:55;12.70;99.90
2611;DHT22;5612;51.134;17.058;2023-05-29T05:01:25;12.80;99.90
2611;DHT22;5612;51.134;17.058;2023-05-29T05:03:56;12.80;99.90
2611;DHT22;5612;51.134;17.058;2023-05-29T05:06:28;12.90;99.90
2611;DHT22;5612;51.134;17.058;2023-05-29T05:08:56;13.10;99.90
2611;DHT22;5612;51.134;17.058;2023-05-29T05:11:25;13.10;99.90
2611;DHT22;5612;51.134;17.058;2023-05-29T05:13:54;13.30;99.90
2611;DHT22;5612;51.134;17.058;2023-05-29T05:16:24;13.40;99.90
2611;DHT22;5612;51.134;17.058;2023-05-29T05:18:53;13.50;99.90
2611;DHT22;5612;51.134;17.058;2023-05-29T05:21:23;13.60;99.90
2611;DHT22;5612;51.134;17.058;2023-05-29T05:23:53;13.70;99.90
2611;DHT22;5612;51.134;17.058;2023-05-29T05:26:25;13.90;99.90
2611;DHT22;5612;51.134;17.058;2023-05-29T05:28:54;13.90;99.90
2611;DHT22;5612;51.134;17.058;2023-05-29T05:31:24;13.90;99.90
2611;DHT22;5612;51.134;17.058;2023-05-29T05:33:53;14.00;19.40
2611;DHT22;5612;51.134;17.058;2023-05-29T05:36:22;14.10;1.00
2611;DHT22;5612;51.134;17.058;2023-05-29T05:38:53;14.10;1.00
2611;DHT22;5612;51.134;17.058;2023-05-29T05:41:22;14.30;1.00
2611;DHT22;5612;51.134;17.058;2023-05-29T05:43:52;14.30;1.00
2611;DHT22;5612;51.134;17.058;2023-05-29T05:46:21;14.60;3.50
2611;DHT22;5612;51.134;17.058;2023-05-29T05:48:53;14.70;1.00
2611;DHT22;5612;51.134;17.058;2023-05-29T05:51:24;14.80;1.00
2611;DHT22;5612;51.134;17.058;2023-05-29T05:53:56;15.00;1.00
2611;DHT22;5612;51.134;17.058;2023-05-29T05:56:26;15.10;1.00
2611;DHT22;5612;51.134;17.058;2023-05-29T05:58:55;15.20;1.00
2611;DHT22;5612;51.134;17.058;2023-05-29T06:01:25;15.40;1.00
2611;DHT22;5612;51.134;17.058;2023-05-29T06:03:55;15.60;1.00
2611;DHT22;5612;51.134;17.058;2023-05-29T06:06:25;15.80;1.00
2611;DHT22;5612;51.134;17.058;2023-05-29T06:08:56;15.90;1.00
2611;DHT22;5612;51.134;17.058;2023-05-29T06:11:26;16.00;1.00
2611;DHT22;5612;51.134;17.058;2023-05-29T06:13:54;16.20;1.00
2611;DHT22;5612;51.134;17.058;2023-05-29T06:16:23;16.40;1.00
2611;DHT22;5612;51.134;17.058;2023-05-29T06:18:52;16.50;1.00
2611;DHT22;5612;51.134;17.058;2023-05-29T06:21:22;16.60;1.00
2611;DHT22;5612;51.134;17.058;2023-05-29T06:23:51;16.80;1.00
2611;DHT22;5612;51.134;17.058;2023-05-29T06:26:22;16.90;1.00
2611;DHT22;5612;51.134;17.058;2023-05-29T06:28:52;17.00;1.00
2611;DHT22;5612;51.134;17.058;2023-05-29T06:31:22;17.10;1.00
2611;DHT22;5612;51.134;17.058;2023-05-29T06:33:54;17.30;1.00
2611;DHT22;5612;51.134;17.058;2023-05-29T06:36:24;17.40;1.00
2611;DHT22;5612;51.134;17.058;2023-05-29T06:38:53;17.50;1.00
2611;DHT22;5612;51.134;17.058;2023-05-29T06:41:23;17.60;1.00
2611;DHT22;5612;51.134;17.058;2023-05-29T06:43:52;17.70;1.00
2611;DHT22;5612;51.134;17.058;2023-05-29T06:46:20;18.10;1.00
2611;DHT22;5612;51.134;17.058;2023-05-29T06:48:49;18.50;1.00
2611;DHT22;5612;51.134;17.058;2023-05-29T06:51:19;19.10;1.00
2611;DHT22;5612;51.134;17.058;2023-05-29T06:53:49;19.80;1.00
2611;DHT22;5612;51.134;17.058;2023-05-29T06:56:20;20.50;1.00
2611;DHT22;5612;51.134;17.058;2023-05-29T06:58:50;21.50;1.00
2611;DHT22;5612;51.134;17.058;2023-05-29T07:01:22;22.20;1.00
2611;DHT22;5612;51.134;17.058;2023-05-29T07:03:59;23.10;1.00
2611;DHT22;5612;51.134;17.058;2023-05-29T07:06:36;23.80;1.00
2611;DHT22;5612;51.134;17.058;2023-05-29T07:09:17;24.60;1.00
2611;DHT22;5612;51.134;17.058;2023-05-29T07:11:49;25.30;1.00
2611;DHT22;5612;51.134;17.058;2023-05-29T07:14:23;26.10;1.00
2611;DHT22;5612;51.134;17.058;2023-05-29T07:16:52;26.60;1.00
2611;DHT22;5612;51.134;17.058;2023-05-29T07:19:24;26.90;1.00
2611;DHT22;5612;51.134;17.058;2023-05-29T07:21:59;27.50;1.00
2611;DHT22;5612;51.134;17.058;2023-05-29T07:24:31;27.90;1.00
2611;DHT22;5612;51.134;17.058;2023-05-29T07:27:07;28.10;1.00
2611;DHT22;5612;51.134;17.058;2023-05-29T07:29:40;28.50;1.00
2611;DHT22;5612;51.134;17.058;2023-05-29T07:32:13;28.50;1.00
2611;DHT22;5612;51.134;17.058;2023-05-29T07:34:46;29.20;1.00
2611;DHT22;5612;51.134;17.058;2023-05-29T07:37:28;29.80;1.00
2611;DHT22;5612;51.134;17.058;2023-05-29T07:40:10;30.40;1.00
2611;DHT22;5612;51.134;17.058;2023-05-29T07:42:47;31.40;1.00
2611;DHT22;5612;51.134;17.058;2023-05-29T07:45:27;31.40;1.00
2611;DHT22;5612;51.134;17.058;2023-05-29T07:48:01;31.30;1.00
2611;DHT22;5612;51.134;17.058;2023-05-29T07:50:36;31.70;1.00
2611;DHT22;5612;51.134;17.058;2023-05-29T07:53:15;31.90;1.00
2611;DHT22;5612;51.134;17.058;2023-05-29T07:56:00;32.60;1.00
2611;DHT22;5612;51.134;17.058;2023-05-29T07:58:35;33.30;1.00
2611;DHT22;5612;51.134;17.058;2023-05-29T08:01:16;33.40;1.00
2611;DHT22;5612;51.134;17.058;2023-05-29T08:03:54;33.60;1.00
2611;DHT22;5612;51.134;17.058;2023-05-29T08:06:36;33.90;1.00
2611;DHT22;5612;51.134;17.058;2023-05-29T08:09:15;34.10;1.00
2611;DHT22;5612;51.134;17.058;2023-05-29T08:11:56;34.30;1.00
2611;DHT22;5612;51.134;17.058;2023-05-29T08:14:33;34.90;1.00
2611;DHT22;5612;51.134;17.058;2023-05-29T08:17:13;35.40;1.00
2611;DHT22;5612;51.134;17.058;2023-05-29T08:19:47;35.50;1.00
2611;DHT22;5612;51.134;17.058;2023-05-29T08:22:28;36.50;1.00
2611;DHT22;5612;51.134;17.058;2023-05-29T08:25:06;35.10;1.00
2611;DHT22;5612;51.134;17.058;2023-05-29T08:27:41;35.60;1.00
2611;DHT22;5612;51.134;17.058;2023-05-29T08:30:23;36.90;1.00
2611;DHT22;5612;51.134;17.058;2023-05-29T08:33:07;37.50;1.00
2611;DHT22;5612;51.134;17.058;2023-05-29T08:35:43;37.30;1.00
2611;DHT22;5612;51.134;17.058;2023-05-29T08:38:16;37.50;1.00
2611;DHT22;5612;51.134;17.058;2023-05-29T08:40:50;38.60;1.00
2611;DHT22;5612;51.134;17.058;2023-05-29T08:43:23;38.50;1.00
2611;DHT22;5612;51.134;17.058;2023-05-29T08:46:04;39.10;1.00
2611;DHT22;5612;51.134;17.058;2023-05-29T08:48:49;39.30;1.00
2611;DHT22;5612;51.134;17.058;2023-05-29T08:51:36;38.80;1.00
2611;DHT22;5612;51.134;17.058;2023-05-29T08:54:16;39.40;1.00
2611;DHT22;5612;51.134;17.058;2023-05-29T08:56:48;39.30;1.00
2611;DHT22;5612;51.134;17.058;2023-05-29T08:59:26;39.20;1.00
2611;DHT22;5612;51.134;17.058;2023-05-29T09:02:04;40.10;1.00
2611;DHT22;5612;51.134;17.058;2023-05-29T09:04:49;40.50;1.00
2611;DHT22;5612;51.134;17.058;2023-05-29T09:07:33;40.50;1.00
2611;DHT22;5612;51.134;17.058;2023-05-29T09:10:16;41.10;1.00
2611;DHT22;5612;51.134;17.058;2023-05-29T09:12:52;40.40;1.00
2611;DHT22;5612;51.134;17.058;2023-05-29T09:15:26;40.30;1.00
2611;DHT22;5612;51.134;17.058;2023-05-29T09:18:04;40.60;1.00
2611;DHT22;5612;51.134;17.058;2023-05-29T09:20:51;41.20;1.00
2611;DHT22;5612;51.134;17.058;2023-05-29T09:23:29;40.40;1.00
2611;DHT22;5612;51.134;17.058;2023-05-29T09:26:21;41.20;1.00
2611;DHT22;5612;51.134;17.058;2023-05-29T09:29:07;41.60;1.00
2611;DHT22;5612;51.134;17.058;2023-05-29T09:31:47;42.40;1.00
2611;DHT22;5612;51.134;17.058;2023-05-29T09:34:25;41.50;1.00
2611;DHT22;5612;51.134;17.058;2023-05-29T09:37:07;41.80;1.00
2611;DHT22;5612;51.134;17.058;2023-05-29T09:39:53;42.30;1.00
2611;DHT22;5612;51.134;17.058;2023-05-29T09:42:42;42.80;1.00
2611;DHT22;5612;51.134;17.058;2023-05-29T09:45:44;41.90;1.00
2611;DHT22;5612;51.134;17.058;2023-05-29T09:48:26;42.40;1.00
2611;DHT22;5612;51.134;17.058;2023-05-29T09:51:06;43.60;1.00
2611;DHT22;5612;51.134;17.058;2023-05-29T09:53:57;42.90;1.00
2611;DHT22;5612;51.134;17.058;2023-05-29T09:56:36;42.90;1.00
2611;DHT22;5612;51.134;17.058;2023-05-29T09:59:12;43.00;1.00
2611;DHT22;5612;51.134;17.058;2023-05-29T10:02:00;43.30;1.00
2611;DHT22;5612;51.134;17.058;2023-05-29T10:04:40;43.40;1.00
2611;DHT22;5612;51.134;17.058;2023-05-29T10:07:26;44.40;1.00
2611;DHT22;5612;51.134;17.058;2023-05-29T10:10:06;43.00;1.00
2611;DHT22;5612;51.134;17.058;2023-05-29T10:12:38;41.80;1.00
2611;DHT22;5612;51.134;17.058;2023-05-29T10:15:12;43.10;1.00
2611;DHT22;5612;51.134;17.058;2023-05-29T10:17:48;44.40;1.00
2611;DHT22;5612;51.134;17.058;2023-05-29T10:20:20;43.40;1.00
2611;DHT22;5612;51.134;17.058;2023-05-29T10:22:54;43.40;1.00
2611;DHT22;5612;51.134;17.058;2023-05-29T10:25:33;44.50;1.00
2611;DHT22;5612;51.134;17.058;2023-05-29T10:28:03;45.50;1.00
2611;DHT22;5612;51.134;17.058;2023-05-29T10:30:37;45.50;1.00
2611;DHT22;5612;51.134;17.058;2023-05-29T10:33:26;46.00;1.00
2611;DHT22;5612;51.134;17.058;2023-05-29T10:36:09;45.10;1.00
2611;DHT22;5612;51.134;17.058;2023-05-29T10:38:43;44.00;1.00
2611;DHT22;5612;51.134;17.058;2023-05-29T10:41:38;43.50;1.00
2611;DHT22;5612;51.134;17.058;2023-05-29T10:44:39;44.20;1.00
2611;DHT22;5612;51.134;17.058;2023-05-29T10:47:25;44.40;1.00
2611;DHT22;5612;51.134;17.058;2023-05-29T10:50:04;45.60;1.00
2611;DHT22;5612;51.134;17.058;2023-05-29T10:52:47;46.60;1.00
2611;DHT22;5612;51.134;17.058;2023-05-29T10:55:36;44.80;1.00
2611;DHT22;5612;51.134;17.058;2023-05-29T10:58:20;45.20;1.00
2611;DHT22;5612;51.134;17.058;2023-05-29T11:00:57;44.90;1.00
2611;DHT22;5612;51.134;17.058;2023-05-29T11:03:33;45.10;1.00
2611;DHT22;5612;51.134;17.058;2023-05-29T11:06:19;44.90;1.00
2611;DHT22;5612;51.134;17.058;2023-05-29T11:08:53;46.10;1.00
2611;DHT22;5612;51.134;17.058;2023-05-29T11:11:32;46.20;1.00
2611;DHT22;5612;51.134;17.058;2023-05-29T11:14:05;45.50;1.00
2611;DHT22;5612;51.134;17.058;2023-05-29T11:16:38;45.30;1.00
2611;DHT22;5612;51.134;17.058;2023-05-29T11:19:07;45.80;1.00
2611;DHT22;5612;51.134;17.058;2023-05-29T11:21:53;45.60;1.00
2611;DHT22;5612;51.134;17.058;2023-05-29T11:24:26;45.50;1.00
2611;DHT22;5612;51.134;17.058;2023-05-29T11:26:56;44.00;1.00
2611;DHT22;5612;51.134;17.058;2023-05-29T11:29:33;43.10;1.00
2611;DHT22;5612;51.134;17.058;2023-05-29T11:32:03;43.60;1.00
2611;DHT22;5612;51.134;17.058;2023-05-29T11:34:33;42.00;1.00
2611;DHT22;5612;51.134;17.058;2023-05-29T11:37:03;42.60;1.00
2611;DHT22;5612;51.134;17.058;2023-05-29T11:39:36;42.60;1.00
2611;DHT22;5612;51.134;17.058;2023-05-29T11:42:07;42.40;1.00
2611;DHT22;5612;51.134;17.058;2023-05-29T11:44:37;41.20;1.00
2611;DHT22;5612;51.134;17.058;2023-05-29T11:47:08;39.70;1.00
2611;DHT22;5612;51.134;17.058;2023-05-29T11:49:37;40.40;1.00
2611;DHT22;5612;51.134;17.058;2023-05-29T11:52:07;39.40;1.00
2611;DHT22;5612;51.134;17.058;2023-05-29T11:54:43;40.00;1.00
2611;DHT22;5612;51.134;17.058;2023-05-29T11:57:19;40.00;1.00
2611;DHT22;5612;51.134;17.058;2023-05-29T11:59:58;39.30;1.00
2611;DHT22;5612;51.134;17.058;2023-05-29T12:02:30;38.30;1.00
2611;DHT22;5612;51.134;17.058;2023-05-29T12:05:02;38.20;1.00
2611;DHT22;5612;51.134;17.058;2023-05-29T12:07:33;38.80;1.00
2611;DHT22;5612;51.134;17.058;2023-05-29T12:10:11;40.70;1.00
2611;DHT22;5612;51.134;17.058;2023-05-29T12:12:40;40.80;1.00
2611;DHT22;5612;51.134;17.058;2023-05-29T12:15:12;40.70;1.00
2611;DHT22;5612;51.134;17.058;2023-05-29T12:17:41;41.30;1.00
2611;DHT22;5612;51.134;17.058;2023-05-29T12:20:12;42.20;1.00
2611;DHT22;5612;51.134;17.058;2023-05-29T12:22:44;42.30;1.00
2611;DHT22;5612;51.134;17.058;2023-05-29T12:25:16;42.90;1.00
2611;DHT22;5612;51.134;17.058;2023-05-29T12:27:47;42.50;1.00
2611;DHT22;5612;51.134;17.058;2023-05-29T12:30:21;43.10;1.00
2611;DHT22;5612;51.134;17.058;2023-05-29T12:33:00;43.70;1.00
2611;DHT22;5612;51.134;17.058;2023-05-29T12:35:30;42.60;1.00
2611;DHT22;5612;51.134;17.058;2023-05-29T12:38:00;42.50;1.00
2611;DHT22;5612;51.134;17.058;2023-05-29T12:40:30;42.80;1.00
2611;DHT22;5612;51.134;17.058;2023-05-29T12:43:01;42.20;1.00
2611;DHT22;5612;51.134;17.058;2023-05-29T12:45:33;42.40;1.00
2611;DHT22;5612;51.134;17.058;2023-05-29T12:48:03;42.20;1.00
2611;DHT22;5612;51.134;17.058;2023-05-29T12:50:34;42.60;1.00
2611;DHT22;5612;51.134;17.058;2023-05-29T12:53:05;41.80;1.00
2611;DHT22;5612;51.134;17.058;2023-05-29T12:55:36;41.40;1.00
2611;DHT22;5612;51.134;17.058;2023-05-29T12:58:07;41.20;1.00
2611;DHT22;5612;51.134;17.058;2023-05-29T13:00:38;41.20;1.00
2611;DHT22;5612;51.134;17.058;2023-05-29T13:03:08;42.00;1.00
2611;DHT22;5612;51.134;17.058;2023-05-29T13:05:38;42.80;1.00
2611;DHT22;5612;51.134;17.058;2023-05-29T13:08:08;43.10;1.00
2611;DHT22;5612;51.134;17.058;2023-05-29T13:10:37;42.10;1.00
2611;DHT22;5612;51.134;17.058;2023-05-29T13:13:06;39.70;1.00
2611;DHT22;5612;51.134;17.058;2023-05-29T13:15:38;38.50;1.00
2611;DHT22;5612;51.134;17.058;2023-05-29T13:18:08;38.90;1.00
2611;DHT22;5612;51.134;17.058;2023-05-29T13:20:37;39.40;1.00
2611;DHT22;5612;51.134;17.058;2023-05-29T13:23:06;39.20;1.00
2611;DHT22;5612;51.134;17.058;2023-05-29T13:25:36;37.80;1.00
2611;DHT22;5612;51.134;17.058;2023-05-29T13:28:05;36.50;1.00
2611;DHT22;5612;51.134;17.058;2023-05-29T13:30:34;36.10;1.00
2611;DHT22;5612;51.134;17.058;2023-05-29T13:33:05;35.70;1.00
2611;DHT22;5612;51.134;17.058;2023-05-29T13:35:34;36.50;1.00
2611;DHT22;5612;51.134;17.058;2023-05-29T13:38:03;37.90;1.00
2611;DHT22;5612;51.134;17.058;2023-05-29T13:40:32;38.90;1.00
2611;DHT22;5612;51.134;17.058;2023-05-29T13:43:01;39.50;1.00
2611;DHT22;5612;51.134;17.058;2023-05-29T13:45:30;40.70;1.00
2611;DHT22;5612;51.134;17.058;2023-05-29T13:47:59;41.00;1.00
2611;DHT22;5612;51.134;17.058;2023-05-29T13:50:30;41.00;1.00
2611;DHT22;5612;51.134;17.058;2023-05-29T13:52:59;40.80;1.00
2611;DHT22;5612;51.134;17.058;2023-05-29T13:55:29;40.10;1.00
2611;DHT22;5612;51.134;17.058;2023-05-29T13:57:58;39.90;1.00
2611;DHT22;5612;51.134;17.058;2023-05-29T14:00:28;39.50;1.00
2611;DHT22;5612;51.134;17.058;2023-05-29T14:02:58;39.70;1.00
2611;DHT22;5612;51.134;17.058;2023-05-29T14:05:29;39.30;1.00
2611;DHT22;5612;51.134;17.058;2023-05-29T14:07:58;38.70;1.00
2611;DHT22;5612;51.134;17.058;2023-05-29T14:10:28;38.10;1.00
2611;DHT22;5612;51.134;17.058;2023-05-29T14:12:57;37.80;1.00
2611;DHT22;5612;51.134;17.058;2023-05-29T14:15:26;37.30;1.00
2611;DHT22;5612;51.134;17.058;2023-05-29T14:17:55;37.40;1.00
2611;DHT22;5612;51.134;17.058;2023-05-29T14:20:24;37.30;1.00
2611;DHT22;5612;51.134;17.058;2023-05-29T14:22:55;37.30;1.00
2611;DHT22;5612;51.134;17.058;2023-05-29T14:25:24;36.50;1.00
2611;DHT22;5612;51.134;17.058;2023-05-29T14:27:53;36.30;1.00
2611;DHT22;5612;51.134;17.058;2023-05-29T14:30:23;36.40;1.00
2611;DHT22;5612;51.134;17.058;2023-05-29T14:32:52;35.30;1.00
2611;DHT22;5612;51.134;17.058;2023-05-29T14:35:21;33.80;1.00
2611;DHT22;5612;51.134;17.058;2023-05-29T14:37:50;33.10;1.00
2611;DHT22;5612;51.134;17.058;2023-05-29T14:40:20;33.30;1.00
2611;DHT22;5612;51.134;17.058;2023-05-29T14:42:50;33.60;1.00
2611;DHT22;5612;51.134;17.058;2023-05-29T14:45:19;34.00;1.00
2611;DHT22;5612;51.134;17.058;2023-05-29T14:47:48;33.30;1.00
2611;DHT22;5612;51.134;17.058;2023-05-29T14:50:17;32.90;1.00
2611;DHT22;5612;51.134;17.058;2023-05-29T14:52:47;32.90;1.00
2611;DHT22;5612;51.134;17.058;2023-05-29T14:55:17;32.10;1.00
2611;DHT22;5612;51.134;17.058;2023-05-29T14:57:49;31.60;1.00
2611;DHT22;5612;51.134;17.058;2023-05-29T15:00:26;31.20;1.00
2611;DHT22;5612;51.134;17.058;2023-05-29T15:03:04;30.40;1.00
2611;DHT22;5612;51.134;17.058;2023-05-29T15:05:41;30.20;1.00
2611;DHT22;5612;51.134;17.058;2023-05-29T15:08:18;30.10;1.00
2611;DHT22;5612;51.134;17.058;2023-05-29T15:10:54;30.30;1.00
2611;DHT22;5612;51.134;17.058;2023-05-29T15:13:41;30.70;1.00
2611;DHT22;5612;51.134;17.058;2023-05-29T15:16:19;30.70;1.00
2611;DHT22;5612;51.134;17.058;2023-05-29T15:18:57;30.60;1.00
2611;DHT22;5612;51.134;17.058;2023-05-29T15:21:46;30.30;1.00
2611;DHT22;5612;51.134;17.058;2023-05-29T15:24:25;30.20;1.00
2611;DHT22;5612;51.134;17.058;2023-05-29T15:27:02;30.10;1.00
2611;DHT22;5612;51.134;17.058;2023-05-29T15:29:43;30.10;1.00
2611;DHT22;5612;51.134;17.058;2023-05-29T15:32:29;30.20;1.00
2611;DHT22;5612;51.134;17.058;2023-05-29T15:35:10;30.50;1.00
2611;DHT22;5612;51.134;17.058;2023-05-29T15:37:54;30.40;1.00
2611;DHT22;5612;51.134;17.058;2023-05-29T15:40:39;30.00;1.00
2611;DHT22;5612;51.134;17.058;2023-05-29T15:43:23;29.90;1.00
2611;DHT22;5612;51.134;17.058;2023-05-29T15:46:09;29.20;1.00
2611;DHT22;5612;51.134;17.058;2023-05-29T15:48:46;28.60;1.00
2611;DHT22;5612;51.134;17.058;2023-05-29T15:51:17;28.40;1.00
2611;DHT22;5612;51.134;17.058;2023-05-29T15:53:46;28.60;1.00
2611;DHT22;5612;51.134;17.058;2023-05-29T15:56:15;28.70;1.00
2611;DHT22;5612;51.134;17.058;2023-05-29T15:58:46;28.20;1.00
2611;DHT22;5612;51.134;17.058;2023-05-29T16:01:17;28.40;1.00
2611;DHT22;5612;51.134;17.058;2023-05-29T16:03:46;28.20;1.00
2611;DHT22;5612;51.134;17.058;2023-05-29T16:06:16;27.90;1.00
2611;DHT22;5612;51.134;17.058;2023-05-29T16:08:45;28.10;1.00
2611;DHT22;5612;51.134;17.058;2023-05-29T16:11:15;28.10;1.00
2611;DHT22;5612;51.134;17.058;2023-05-29T16:13:44;28.10;1.00
2611;DHT22;5612;51.134;17.058;2023-05-29T16:16:13;27.90;1.00
2611;DHT22;5612;51.134;17.058;2023-05-29T16:18:46;27.70;1.00
2611;DHT22;5612;51.134;17.058;2023-05-29T16:21:19;27.40;1.00
2611;DHT22;5612;51.134;17.058;2023-05-29T16:23:50;27.30;1.00
2611;DHT22;5612;51.134;17.058;2023-05-29T16:26:25;27.10;1.00
2611;DHT22;5612;51.134;17.058;2023-05-29T16:28:57;26.90;1.00
2611;DHT22;5612;51.134;17.058;2023-05-29T16:31:27;26.70;1.00
2611;DHT22;5612;51.134;17.058;2023-05-29T16:33:58;26.50;1.00